sensor_id;sensor_type;location;lat;lon;timestamp;pressure;altitude;pressure_sealevel;temperature;humidity
5298;BME280;14738;42.668;23.250;2023-04-10T00:00:07;48445.88;;;-141.90;52.32
5298;BME280;14738;42.668;23.250;2023-04-10T00:02:34;48473.69;;;-141.90;52.75
5298;BME280;14738;42.668;23.250;2023-04-10T00:05:00;48461.78;;;-141.90;53.36
5298;BME280;14738;42.668;23.250;2023-04-10T00:07:25;48455.81;;;-141.90;53.10
5298;BME280;14738;42.668;23.250;2023-04-10T00:09:52;48461.78;;;-141.90;52.84
5298;BME280;14738;42.668;23.250;2023-04-10T00:12:17;48465.75;;;-141.90;51.65
5298;BME280;14738;42.668;23.250;2023-04-10T00:14:43;48469.72;;;-141.90;49.66
5298;BME280;14738;42.668;23.250;2023-04-10T00:17:08;48477.66;;;-141.90;48.67
5298;BME280;14738;42.668;23.250;2023-04-10T00:19:34;48433.97;;;-141.90;47.99
5298;BME280;14738;42.668;23.250;2023-04-10T00:21:59;48461.78;;;-141.90;48.07
5298;BME280;14738;42.668;23.250;2023-04-10T00:24:25;48477.66;;;-141.90;48.08
5298;BME280;14738;42.668;23.250;2023-04-10T00:26:50;48461.78;;;-141.90;47.75
5298;BME280;14738;42.668;23.250;2023-04-10T00:29:16;48477.66;;;-141.90;47.01
5298;BME280;14738;42.668;23.250;2023-04-10T00:31:41;48469.72;;;-141.90;46.68
5298;BME280;14738;42.668;23.250;2023-04-10T00:34:07;48449.84;;;-141.90;46.70
5298;BME280;14738;42.668;23.250;2023-04-10T00:36:33;48453.81;;;-141.90;46.20
5298;BME280;14738;42.668;23.250;2023-04-10T00:38:59;48473.69;;;-141.90;46.47
5298;BME280;14738;42.668;23.250;2023-04-10T00:41:25;48457.81;;;-141.90;45.47
5298;BME280;14738;42.668;23.250;2023-04-10T00:43:55;48479.63;;;-141.90;45.28
5298;BME280;14738;42.668;23.250;2023-04-10T00:46:21;48479.63;;;-141.90;45.42
5298;BME280;14738;42.668;23.250;2023-04-10T00:48:50;48481.63;;;-141.90;45.11
5298;BME280;14738;42.668;23.250;2023-04-10T00:51:17;48447.88;;;-141.90;44.79
5298;BME280;14738;42.668;23.250;2023-04-10T00:53:46;48406.19;;;-141.90;44.71
5298;BME280;14738;42.668;23.250;2023-04-10T00:56:11;48475.66;;;-141.90;44.80
5298;BME280;14738;42.668;23.250;2023-04-10T00:58:37;48501.47;;;-141.90;44.37
5298;BME280;14738;42.668;23.250;2023-04-10T01:01:06;48449.84;;;-141.90;44.08
5298;BME280;14738;42.668;23.250;2023-04-10T01:03:32;48469.72;;;-141.90;44.03
5298;BME280;14738;42.668;23.250;2023-04-10T01:11:52;48473.69;;;-141.90;44.23
5298;BME280;14738;42.668;23.250;2023-04-10T01:22:27;48485.59;;;-141.90;48.03
5298;BME280;14738;42.668;23.250;2023-04-10T01:25:04;48461.78;;;-141.90;48.42
5298;BME280;14738;42.668;23.250;2023-04-10T01:27:59;48449.84;;;-141.90;49.04
5298;BME280;14738;42.668;23.250;2023-04-10T01:30:31;48477.66;;;-141.90;49.51
5298;BME280;14738;42.668;23.250;2023-04-10T01:32:58;48489.56;;;-141.90;49.95
5298;BME280;14738;42.668;23.250;2023-04-10T01:35:25;48473.69;;;-141.90;50.46
5298;BME280;14738;42.668;23.250;2023-04-10T01:37:55;48473.69;;;-141.90;50.47
5298;BME280;14738;42.668;23.250;2023-04-10T01:40:22;48469.72;;;-141.90;50.82
5298;BME280;14738;42.668;23.250;2023-04-10T01:42:51;48477.66;;;-141.90;50.32
5298;BME280;14738;42.668;23.250;2023-04-10T01:45:20;48477.66;;;-141.90;50.34
5298;BME280;14738;42.668;23.250;2023-04-10T01:47:47;48489.56;;;-141.90;50.56
5298;BME280;14738;42.668;23.250;2023-04-10T01:50:13;48477.66;;;-141.90;50.07
5298;BME280;14738;42.668;23.250;2023-04-10T01:52:40;48453.81;;;-141.90;49.83
5298;BME280;14738;42.668;23.250;2023-04-10T01:55:07;48465.75;;;-141.90;49.90
5298;BME280;14738;42.668;23.250;2023-04-10T01:57:32;48481.63;;;-141.90;49.17
5298;BME280;14738;42.668;23.250;2023-04-10T02:00:00;48465.75;;;-141.90;48.62
5298;BME280;14738;42.668;23.250;2023-04-10T02:02:30;48473.69;;;-141.90;48.79
5298;BME280;14738;42.668;23.250;2023-04-10T02:04:56;48430.00;;;-141.90;49.04
5298;BME280;14738;42.668;23.250;2023-04-10T02:07:30;48475.66;;;-141.90;48.85
5298;BME280;14738;42.668;23.250;2023-04-10T02:10:15;48479.63;;;-141.90;49.15
5298;BME280;14738;42.668;23.250;2023-04-10T02:12:44;48465.75;;;-141.90;48.89
5298;BME280;14738;42.668;23.250;2023-04-10T02:15:11;48481.63;;;-141.90;49.05
5298;BME280;14738;42.668;23.250;2023-04-10T02:17:37;48469.72;;;-141.90;49.53
5298;BME280;14738;42.668;23.250;2023-04-10T02:20:05;48477.66;;;-141.90;50.17
5298;BME280;14738;42.668;23.250;2023-04-10T02:22:33;48497.50;;;-141.90;50.48
5298;BME280;14738;42.668;23.250;2023-04-10T02:24:58;48463.75;;;-141.90;50.20
5298;BME280;14738;42.668;23.250;2023-04-10T02:27:33;48473.69;;;-141.90;49.99
5298;BME280;14738;42.668;23.250;2023-04-10T02:29:59;48473.69;;;-141.90;50.48
5298;BME280;14738;42.668;23.250;2023-04-10T02:32:25;48457.81;;;-141.90;49.95
5298;BME280;14738;42.668;23.250;2023-04-10T02:34:51;48437.94;;;-141.90;49.69
5298;BME280;14738;42.668;23.250;2023-04-10T02:37:16;48465.75;;;-141.90;49.21
5298;BME280;14738;42.668;23.250;2023-04-10T02:39:42;48469.72;;;-141.90;49.01
5298;BME280;14738;42.668;23.250;2023-04-10T02:42:07;48461.78;;;-141.90;48.84
5298;BME280;14738;42.668;23.250;2023-04-10T02:44:34;48469.72;;;-141.90;49.03
5298;BME280;14738;42.668;23.250;2023-04-10T02:46:59;48489.56;;;-141.90;49.76
5298;BME280;14738;42.668;23.250;2023-04-10T02:49:25;48481.63;;;-141.90;50.20
5298;BME280;14738;42.668;23.250;2023-04-10T02:51:50;48485.59;;;-141.90;50.54
5298;BME280;14738;42.668;23.250;2023-04-10T02:54:15;48477.66;;;-141.90;50.69
5298;BME280;14738;42.668;23.250;2023-04-10T02:56:41;48493.53;;;-141.90;50.79
5298;BME280;14738;42.668;23.250;2023-04-10T02:59:06;48471.69;;;-141.90;50.96
5298;BME280;14738;42.668;23.250;2023-04-10T03:01:32;48489.56;;;-141.90;50.96
5298;BME280;14738;42.668;23.250;2023-04-10T03:03:58;48441.91;;;-141.90;50.89
5298;BME280;14738;42.668;23.250;2023-04-10T03:06:23;48437.94;;;-141.90;51.29
5298;BME280;14738;42.668;23.250;2023-04-10T03:08:52;48493.53;;;-141.90;52.52
5298;BME280;14738;42.668;23.250;2023-04-10T03:11:17;48471.69;;;-141.90;55.07
5298;BME280;14738;42.668;23.250;2023-04-10T03:13:43;48497.50;;;-141.90;58.39
5298;BME280;14738;42.668;23.250;2023-04-10T03:16:08;48453.81;;;-141.90;60.85
5298;BME280;14738;42.668;23.250;2023-04-10T03:18:34;48457.81;;;-141.90;64.07
5298;BME280;14738;42.668;23.250;2023-04-10T03:20:59;48453.81;;;-141.90;66.36
5298;BME280;14738;42.668;23.250;2023-04-10T03:23:26;48473.69;;;-141.90;69.39
5298;BME280;14738;42.668;23.250;2023-04-10T03:25:51;48485.59;;;-141.90;72.07
5298;BME280;14738;42.668;23.250;2023-04-10T03:28:20;48493.53;;;-141.90;74.74
5298;BME280;14738;42.668;23.250;2023-04-10T03:30:47;48501.47;;;-141.90;74.45
5298;BME280;14738;42.668;23.250;2023-04-10T03:33:12;48505.44;;;-141.90;77.96
5298;BME280;14738;42.668;23.250;2023-04-10T03:35:37;48477.66;;;-141.90;83.70
5298;BME280;14738;42.668;23.250;2023-04-10T03:38:03;48505.44;;;-141.90;84.80
5298;BME280;14738;42.668;23.250;2023-04-10T03:40:28;48497.50;;;-141.90;84.90
5298;BME280;14738;42.668;23.250;2023-04-10T03:42:54;48481.63;;;-141.90;86.71
5298;BME280;14738;42.668;23.250;2023-04-10T03:45:19;48457.81;;;-141.90;100.00
5298;BME280;14738;42.668;23.250;2023-04-10T03:47:45;48509.41;;;-141.90;100.00
5298;BME280;14738;42.668;23.250;2023-04-10T03:50:10;48479.63;;;-141.90;100.00
5298;BME280;14738;42.668;23.250;2023-04-10T03:52:36;48493.53;;;-141.90;100.00
5298;BME280;14738;42.668;23.250;2023-04-10T03:55:01;48489.56;;;-141.90;100.00
5298;BME280;14738;42.668;23.250;2023-04-10T03:57:26;48521.34;;;-141.90;100.00
5298;BME280;14738;42.668;23.250;2023-04-10T03:59:52;48509.41;;;-141.90;100.00
5298;BME280;14738;42.668;23.250;2023-04-10T04:02:17;48495.53;;;-141.90;100.00
5298;BME280;14738;42.668;23.250;2023-04-10T04:04:43;48485.59;;;-141.90;100.00
5298;BME280;14738;42.668;23.250;2023-04-10T04:07:08;48487.56;;;-141.90;100.00
5298;BME280;14738;42.668;23.250;2023-04-10T04:09:35;48513.38;;;-141.90;100.00
5298;BME280;14738;42.668;23.250;2023-04-10T04:12:00;48489.56;;;-141.90;100.00
5298;BME280;14738;42.668;23.250;2023-04-10T04:14:26;48445.88;;;-141.90;100.00
5298;BME280;14738;42.668;23.250;2023-04-10T04:16:51;48475.66;;;-141.90;100.00
5298;BME280;14738;42.668;23.250;2023-04-10T04:19:16;48469.72;;;-141.90;100.00
5298;BME280;14738;42.668;23.250;2023-04-10T04:21:42;48493.53;;;-141.90;100.00
5298;BME280;14738;42.668;23.250;2023-04-10T04:24:07;48491.56;;;-141.90;100.00
5298;BME280;14738;42.668;23.250;2023-04-10T04:26:33;48487.56;;;-141.90;100.00
5298;BME280;14738;42.668;23.250;2023-04-10T04:28:58;48465.75;;;-141.90;100.00
5298;BME280;14738;42.668;23.250;2023-04-10T04:31:23;48477.66;;;-141.90;100.00
5298;BME280;14738;42.668;23.250;2023-04-10T04:33:49;48487.56;;;-141.90;100.00
5298;BME280;14738;42.668;23.250;2023-04-10T04:36:15;48495.53;;;-141.90;100.00
5298;BME280;14738;42.668;23.250;2023-04-10T04:38:41;48465.75;;;-141.90;100.00
5298;BME280;14738;42.668;23.250;2023-04-10T04:41:06;48465.75;;;-141.90;100.00
5298;BME280;14738;42.668;23.250;2023-04-10T04:43:32;48477.66;;;-141.90;100.00
5298;BME280;14738;42.668;23.250;2023-04-10T04:45:57;48479.63;;;-141.90;100.00
5298;BME280;14738;42.668;23.250;2023-04-10T04:48:23;48477.66;;;-141.90;100.00
5298;BME280;14738;42.668;23.250;2023-04-10T04:50:49;48471.69;;;-141.90;100.00
5298;BME280;14738;42.668;23.250;2023-04-10T04:53:14;48473.69;;;-141.90;100.00
5298;BME280;14738;42.668;23.250;2023-04-10T04:55:40;48451.84;;;-141.90;100.00
5298;BME280;14738;42.668;23.250;2023-04-10T04:58:05;48453.81;;;-141.90;100.00
5298;BME280;14738;42.668;23.250;2023-04-10T05:00:31;48471.69;;;-141.90;100.00
5298;BME280;14738;42.668;23.250;2023-04-10T05:02:56;48447.88;;;-141.90;100.00
5298;BME280;14738;42.668;23.250;2023-04-10T05:05:22;48453.81;;;-141.90;100.00
5298;BME280;14738;42.668;23.250;2023-04-10T05:07:47;48439.94;;;-141.90;100.00
5298;BME280;14738;42.668;23.250;2023-04-10T05:10:13;48457.81;;;-141.90;100.00
5298;BME280;14738;42.668;23.250;2023-04-10T05:12:38;48471.69;;;-141.90;45.58
5298;BME280;14738;42.668;23.250;2023-04-10T05:15:06;48453.81;;;-141.90;44.62
5298;BME280;14738;42.668;23.250;2023-04-10T05:17:31;48451.84;;;-141.90;44.59
5298;BME280;14738;42.668;23.250;2023-04-10T05:19:57;48439.94;;;-141.90;43.24
5298;BME280;14738;42.668;23.250;2023-04-10T05:22:22;48432.00;;;-141.90;42.16
5298;BME280;14738;42.668;23.250;2023-04-10T05:24:47;48469.72;;;-141.90;43.15
5298;BME280;14738;42.668;23.250;2023-04-10T05:27:13;48426.03;;;-141.90;42.53
5298;BME280;14738;42.668;23.250;2023-04-10T05:29:38;48451.84;;;-141.90;42.98
5298;BME280;14738;42.668;23.250;2023-04-10T05:32:04;48410.16;;;-141.90;42.71
5298;BME280;14738;42.668;23.250;2023-04-10T05:34:29;48437.94;;;-141.90;41.85
5298;BME280;14738;42.668;23.250;2023-04-10T05:36:55;48457.81;;;-141.90;41.30
5298;BME280;14738;42.668;23.250;2023-04-10T05:39:20;48443.91;;;-141.90;40.99
5298;BME280;14738;42.668;23.250;2023-04-10T05:41:45;48445.88;;;-141.90;39.77
5298;BME280;14738;42.668;23.250;2023-04-10T05:44:11;48469.72;;;-141.90;39.50
5298;BME280;14738;42.668;23.250;2023-04-10T05:46:36;48455.81;;;-141.90;39.00
5298;BME280;14738;42.668;23.250;2023-04-10T05:49:02;48461.78;;;-141.90;39.27
5298;BME280;14738;42.668;23.250;2023-04-10T05:51:27;48441.91;;;-141.90;39.08
5298;BME280;14738;42.668;23.250;2023-04-10T05:53:53;48449.84;;;-141.90;40.00
5298;BME280;14738;42.668;23.250;2023-04-10T05:56:18;48412.13;;;-141.90;40.47
5298;BME280;14738;42.668;23.250;2023-04-10T05:58:43;48445.88;;;-141.90;40.57
5298;BME280;14738;42.668;23.250;2023-04-10T06:01:09;48449.84;;;-141.90;41.04
5298;BME280;14738;42.668;23.250;2023-04-10T06:03:35;48416.09;;;-141.90;41.99
5298;BME280;14738;42.668;23.250;2023-04-10T06:06:01;48426.03;;;-141.90;42.88
5298;BME280;14738;42.668;23.250;2023-04-10T06:08:27;48426.03;;;-141.90;42.36
5298;BME280;14738;42.668;23.250;2023-04-10T06:10:52;48459.78;;;-141.90;41.64
5298;BME280;14738;42.668;23.250;2023-04-10T06:13:18;48433.97;;;-141.90;40.39
5298;BME280;14738;42.668;23.250;2023-04-10T06:15:43;48453.81;;;-141.90;39.96
5298;BME280;14738;42.668;23.250;2023-04-10T06:18:09;48422.06;;;-141.90;40.58
5298;BME280;14738;42.668;23.250;2023-04-10T06:20:35;48428.03;;;-141.90;43.11
5298;BME280;14738;42.668;23.250;2023-04-10T06:23:01;48459.78;;;-141.90;44.24
5298;BME280;14738;42.668;23.250;2023-04-10T06:25:27;48441.91;;;-141.90;45.29
5298;BME280;14738;42.668;23.250;2023-04-10T06:27:52;48437.94;;;-141.90;45.79
5298;BME280;14738;42.668;23.250;2023-04-10T06:30:17;48432.00;;;-141.90;46.74
5298;BME280;14738;42.668;23.250;2023-04-10T06:32:43;48445.88;;;-141.90;46.20
5298;BME280;14738;42.668;23.250;2023-04-10T06:35:08;48445.88;;;-141.90;45.75
5298;BME280;14738;42.668;23.250;2023-04-10T06:37:34;48453.81;;;-141.90;45.38
5298;BME280;14738;42.668;23.250;2023-04-10T06:42:29;48443.91;;;-141.90;45.98
5298;BME280;14738;42.668;23.250;2023-04-10T06:44:55;48439.94;;;-141.90;47.66
5298;BME280;14738;42.668;23.250;2023-04-10T06:47:21;48432.00;;;-141.90;47.28
5298;BME280;14738;42.668;23.250;2023-04-10T06:49:46;48445.88;;;-141.90;46.27
5298;BME280;14738;42.668;23.250;2023-04-10T06:52:12;48437.94;;;-141.90;46.56
5298;BME280;14738;42.668;23.250;2023-04-10T06:54:37;48473.69;;;-141.90;46.69
5298;BME280;14738;42.668;23.250;2023-04-10T06:57:02;48467.72;;;-141.90;46.03
5298;BME280;14738;42.668;23.250;2023-04-10T06:59:28;48449.84;;;-141.90;46.37
5298;BME280;14738;42.668;23.250;2023-04-10T07:01:53;48433.97;;;-141.90;46.82
5298;BME280;14738;42.668;23.250;2023-04-10T07:04:19;48447.88;;;-141.90;46.38
5298;BME280;14738;42.668;23.250;2023-04-10T07:06:44;48437.94;;;-141.90;46.18
5298;BME280;14738;42.668;23.250;2023-04-10T07:09:10;48457.81;;;-141.90;45.77
5298;BME280;14738;42.668;23.250;2023-04-10T07:11:35;48430.00;;;-141.90;46.09
5298;BME280;14738;42.668;23.250;2023-04-10T07:14:01;48455.81;;;-141.90;45.33
5298;BME280;14738;42.668;23.250;2023-04-10T07:16:26;48433.97;;;-141.90;45.82
5298;BME280;14738;42.668;23.250;2023-04-10T07:18:53;48461.78;;;-141.90;45.55
5298;BME280;14738;42.668;23.250;2023-04-10T07:21:19;48469.72;;;-141.90;45.93
5298;BME280;14738;42.668;23.250;2023-04-10T07:23:44;48485.59;;;-141.90;45.05
5298;BME280;14738;42.668;23.250;2023-04-10T07:26:10;48420.09;;;-141.90;46.02
5298;BME280;14738;42.668;23.250;2023-04-10T07:28:35;48430.00;;;-141.90;45.88
5298;BME280;14738;42.668;23.250;2023-04-10T07:31:00;48461.78;;;-141.90;45.58
5298;BME280;14738;42.668;23.250;2023-04-10T07:33:26;48430.00;;;-141.90;45.70
5298;BME280;14738;42.668;23.250;2023-04-10T07:35:51;48475.66;;;-141.90;45.49
5298;BME280;14738;42.668;23.250;2023-04-10T07:38:17;48445.88;;;-141.90;45.53
5298;BME280;14738;42.668;23.250;2023-04-10T07:40:43;48465.75;;;-141.90;45.10
5298;BME280;14738;42.668;23.250;2023-04-10T07:43:08;48453.81;;;-141.90;45.41
5298;BME280;14738;42.668;23.250;2023-04-10T07:45:34;48430.00;;;-141.90;44.15
5298;BME280;14738;42.668;23.250;2023-04-10T07:47:59;48445.88;;;-141.90;44.59
5298;BME280;14738;42.668;23.250;2023-04-10T07:50:26;48461.78;;;-141.90;43.90
5298;BME280;14738;42.668;23.250;2023-04-10T07:52:51;48461.78;;;-141.90;43.19
5298;BME280;14738;42.668;23.250;2023-04-10T07:55:17;48432.00;;;-141.90;41.88
5298;BME280;14738;42.668;23.250;2023-04-10T07:57:42;48437.94;;;-141.90;41.91
5298;BME280;14738;42.668;23.250;2023-04-10T08:00:08;48445.88;;;-141.90;41.94
5298;BME280;14738;42.668;23.250;2023-04-10T08:02:33;48469.72;;;-141.90;41.46
5298;BME280;14738;42.668;23.250;2023-04-10T08:04:59;48426.03;;;-141.90;41.42
5298;BME280;14738;42.668;23.250;2023-04-10T08:07:24;48449.84;;;-141.90;41.72
5298;BME280;14738;42.668;23.250;2023-04-10T08:09:50;48410.16;;;-141.90;41.86
5298;BME280;14738;42.668;23.250;2023-04-10T08:12:15;48433.97;;;-141.90;42.08
5298;BME280;14738;42.668;23.250;2023-04-10T08:14:40;48449.84;;;-141.90;42.14
5298;BME280;14738;42.668;23.250;2023-04-10T08:17:07;48441.91;;;-141.90;42.05
5298;BME280;14738;42.668;23.250;2023-04-10T08:19:39;48441.91;;;-141.90;42.93
5298;BME280;14738;42.668;23.250;2023-04-10T08:22:04;48435.97;;;-141.90;42.38
5298;BME280;14738;42.668;23.250;2023-04-10T08:24:29;48441.91;;;-141.90;42.52
5298;BME280;14738;42.668;23.250;2023-04-10T08:26:55;48469.72;;;-141.90;43.26
5298;BME280;14738;42.668;23.250;2023-04-10T08:29:20;48433.97;;;-141.90;42.93
5298;BME280;14738;42.668;23.250;2023-04-10T08:31:45;48426.03;;;-141.90;42.61
5298;BME280;14738;42.668;23.250;2023-04-10T08:34:11;48433.97;;;-141.90;43.42
5298;BME280;14738;42.668;23.250;2023-04-10T08:36:36;48443.91;;;-141.90;43.20
5298;BME280;14738;42.668;23.250;2023-04-10T08:39:02;48449.84;;;-141.90;41.44
5298;BME280;14738;42.668;23.250;2023-04-10T08:41:27;48443.91;;;-141.90;42.09
5298;BME280;14738;42.668;23.250;2023-04-10T08:43:53;48447.88;;;-141.90;42.59
5298;BME280;14738;42.668;23.250;2023-04-10T08:46:18;48443.91;;;-141.90;42.84
5298;BME280;14738;42.668;23.250;2023-04-10T08:48:54;48437.94;;;-141.90;42.33
5298;BME280;14738;42.668;23.250;2023-04-10T08:51:26;48433.97;;;-141.90;41.44
5298;BME280;14738;42.668;23.250;2023-04-10T08:53:57;48453.81;;;-141.90;41.95
5298;BME280;14738;42.668;23.250;2023-04-10T08:56:23;48418.09;;;-141.90;41.70
5298;BME280;14738;42.668;23.250;2023-04-10T08:58:50;48432.00;;;-141.90;41.49
5298;BME280;14738;42.668;23.250;2023-04-10T09:01:15;48437.94;;;-141.90;41.81
5298;BME280;14738;42.668;23.250;2023-04-10T09:03:41;48437.94;;;-141.90;41.99
5298;BME280;14738;42.668;23.250;2023-04-10T09:06:07;48441.91;;;-141.90;41.70
5298;BME280;14738;42.668;23.250;2023-04-10T09:08:33;48441.91;;;-141.90;41.59
5298;BME280;14738;42.668;23.250;2023-04-10T09:10:58;48426.03;;;-141.90;41.71
5298;BME280;14738;42.668;23.250;2023-04-10T09:13:39;48473.69;;;-141.90;41.88
5298;BME280;14738;42.668;23.250;2023-04-10T09:16:05;48418.09;;;-141.90;41.71
5298;BME280;14738;42.668;23.250;2023-04-10T09:18:48;48447.88;;;-141.90;42.17
5298;BME280;14738;42.668;23.250;2023-04-10T09:21:16;48473.69;;;-141.90;40.72
5298;BME280;14738;42.668;23.250;2023-04-10T09:23:43;48445.88;;;-141.90;39.97
5298;BME280;14738;42.668;23.250;2023-04-10T09:26:27;48443.91;;;-141.90;40.32
5298;BME280;14738;42.668;23.250;2023-04-10T09:29:06;48430.00;;;-141.90;40.75
5298;BME280;14738;42.668;23.250;2023-04-10T09:31:37;48424.06;;;-141.90;40.60
5298;BME280;14738;42.668;23.250;2023-04-10T09:36:41;48437.94;;;-141.90;40.06
5298;BME280;14738;42.668;23.250;2023-04-10T09:39:08;48437.94;;;-141.90;40.62
5298;BME280;14738;42.668;23.250;2023-04-10T09:41:34;48457.81;;;-141.90;40.50
5298;BME280;14738;42.668;23.250;2023-04-10T09:44:09;48420.09;;;-141.90;40.69
5298;BME280;14738;42.668;23.250;2023-04-10T09:46:36;48416.09;;;-141.90;39.93
5298;BME280;14738;42.668;23.250;2023-04-10T09:49:01;48453.81;;;-141.90;40.74
5298;BME280;14738;42.668;23.250;2023-04-10T09:51:33;48432.00;;;-141.90;39.95
5298;BME280;14738;42.668;23.250;2023-04-10T09:54:02;48445.88;;;-141.90;40.03
5298;BME280;14738;42.668;23.250;2023-04-10T09:56:28;48433.97;;;-141.90;40.58
5298;BME280;14738;42.668;23.250;2023-04-10T09:58:56;48449.84;;;-141.90;40.30
5298;BME280;14738;42.668;23.250;2023-04-10T10:01:25;48465.75;;;-141.90;40.41
5298;BME280;14738;42.668;23.250;2023-04-10T10:03:53;48426.03;;;-141.90;39.65
5298;BME280;14738;42.668;23.250;2023-04-10T10:06:20;48424.06;;;-141.90;39.96
5298;BME280;14738;42.668;23.250;2023-04-10T10:08:46;48402.22;;;-141.90;39.70
5298;BME280;14738;42.668;23.250;2023-04-10T10:11:13;48433.97;;;-141.90;39.40
5298;BME280;14738;42.668;23.250;2023-04-10T10:13:46;48432.00;;;-141.90;39.40
5298;BME280;14738;42.668;23.250;2023-04-10T10:16:20;48432.00;;;-141.90;37.73
5298;BME280;14738;42.668;23.250;2023-04-10T10:19:16;48426.03;;;-141.90;36.96
5298;BME280;14738;42.668;23.250;2023-04-10T10:21:45;48435.97;;;-141.90;36.71
5298;BME280;14738;42.668;23.250;2023-04-10T10:24:12;48437.94;;;-141.90;36.06
5298;BME280;14738;42.668;23.250;2023-04-10T10:26:38;48441.91;;;-141.90;36.23
5298;BME280;14738;42.668;23.250;2023-04-10T10:29:06;48439.94;;;-141.90;37.03
5298;BME280;14738;42.668;23.250;2023-04-10T10:31:35;48430.00;;;-141.90;37.63
5298;BME280;14738;42.668;23.250;2023-04-10T10:34:02;48422.06;;;-141.90;36.66
5298;BME280;14738;42.668;23.250;2023-04-10T10:36:30;48424.06;;;-141.90;36.10
5298;BME280;14738;42.668;23.250;2023-04-10T10:41:43;48451.84;;;-141.90;37.96
5298;BME280;14738;42.668;23.250;2023-04-10T10:44:41;48433.97;;;-141.90;37.35
5298;BME280;14738;42.668;23.250;2023-04-10T10:47:29;48453.81;;;-141.90;37.25
5298;BME280;14738;42.668;23.250;2023-04-10T10:50:01;48433.97;;;-141.90;37.46
5298;BME280;14738;42.668;23.250;2023-04-10T10:52:41;48426.03;;;-141.90;37.20
5298;BME280;14738;42.668;23.250;2023-04-10T10:55:30;48475.66;;;-141.90;36.88
5298;BME280;14738;42.668;23.250;2023-04-10T10:58:08;48439.94;;;-141.90;37.18
5298;BME280;14738;42.668;23.250;2023-04-10T11:05:57;48414.13;;;-141.90;37.94
5298;BME280;14738;42.668;23.250;2023-04-10T11:13:30;48416.09;;;-141.90;36.30
5298;BME280;14738;42.668;23.250;2023-04-10T11:15:56;48445.88;;;-141.90;36.11
5298;BME280;14738;42.668;23.250;2023-04-10T11:21:11;48449.84;;;-141.90;35.93
5298;BME280;14738;42.668;23.250;2023-04-10T11:23:37;48433.97;;;-141.90;35.73
5298;BME280;14738;42.668;23.250;2023-04-10T11:26:03;48449.84;;;-141.90;34.44
5298;BME280;14738;42.668;23.250;2023-04-10T11:31:17;48426.03;;;-141.90;33.85
5298;BME280;14738;42.668;23.250;2023-04-10T11:34:00;48439.94;;;-141.90;34.13
5298;BME280;14738;42.668;23.250;2023-04-10T11:36:26;48430.00;;;-141.90;35.54
5298;BME280;14738;42.668;23.250;2023-04-10T11:39:11;48418.09;;;-141.90;37.10
5298;BME280;14738;42.668;23.250;2023-04-10T11:41:41;48408.16;;;-141.90;36.18
5298;BME280;14738;42.668;23.250;2023-04-10T11:44:10;48447.88;;;-141.90;37.49
5298;BME280;14738;42.668;23.250;2023-04-10T11:46:37;48414.13;;;-141.90;36.83
5298;BME280;14738;42.668;23.250;2023-04-10T11:49:05;48433.97;;;-141.90;37.20
5298;BME280;14738;42.668;23.250;2023-04-10T11:51:31;48392.28;;;-141.90;37.13
5298;BME280;14738;42.668;23.250;2023-04-10T11:54:25;48441.91;;;-141.90;37.03
5298;BME280;14738;42.668;23.250;2023-04-10T11:57:04;48449.84;;;-141.90;36.77
5298;BME280;14738;42.668;23.250;2023-04-10T11:59:58;48428.03;;;-141.90;36.97
5298;BME280;14738;42.668;23.250;2023-04-10T12:02:23;48453.81;;;-141.90;36.51
5298;BME280;14738;42.668;23.250;2023-04-10T12:04:56;48422.06;;;-141.90;36.40
5298;BME280;14738;42.668;23.250;2023-04-10T12:07:23;48457.81;;;-141.90;36.88
5298;BME280;14738;42.668;23.250;2023-04-10T12:10:01;48433.97;;;-141.90;37.68
5298;BME280;14738;42.668;23.250;2023-04-10T12:12:36;48426.03;;;-141.90;39.28
5298;BME280;14738;42.668;23.250;2023-04-10T12:15:03;48432.00;;;-141.90;39.29
5298;BME280;14738;42.668;23.250;2023-04-10T12:17:28;48416.09;;;-141.90;39.00
5298;BME280;14738;42.668;23.250;2023-04-10T12:19:54;48424.06;;;-141.90;39.47
5298;BME280;14738;42.668;23.250;2023-04-10T12:22:20;48430.00;;;-141.90;40.14
5298;BME280;14738;42.668;23.250;2023-04-10T12:24:48;48445.88;;;-141.90;41.10
5298;BME280;14738;42.668;23.250;2023-04-10T12:27:24;48451.84;;;-141.90;41.42
5298;BME280;14738;42.668;23.250;2023-04-10T12:29:54;48435.97;;;-141.90;41.83
5298;BME280;14738;42.668;23.250;2023-04-10T12:32:20;48426.03;;;-141.90;46.50
5298;BME280;14738;42.668;23.250;2023-04-10T12:34:54;48418.09;;;-141.90;54.23
5298;BME280;14738;42.668;23.250;2023-04-10T12:37:23;48435.97;;;-141.90;58.62
5298;BME280;14738;42.668;23.250;2023-04-10T12:40:06;48477.66;;;-141.90;77.41
5298;BME280;14738;42.668;23.250;2023-04-10T12:42:39;48457.81;;;-141.90;88.39
5298;BME280;14738;42.668;23.250;2023-04-10T12:48:26;48447.88;;;-141.90;100.00
5298;BME280;14738;42.668;23.250;2023-04-10T12:50:51;48461.78;;;-141.90;100.00
5298;BME280;14738;42.668;23.250;2023-04-10T12:53:17;48475.66;;;-141.90;100.00
5298;BME280;14738;42.668;23.250;2023-04-10T12:55:56;48428.03;;;-141.90;100.00
5298;BME280;14738;42.668;23.250;2023-04-10T12:58:24;48477.66;;;-141.90;100.00
5298;BME280;14738;42.668;23.250;2023-04-10T13:00:57;48483.59;;;-141.90;100.00
5298;BME280;14738;42.668;23.250;2023-04-10T13:03:22;48441.91;;;-141.90;100.00
5298;BME280;14738;42.668;23.250;2023-04-10T13:05:50;48481.63;;;-141.90;100.00
5298;BME280;14738;42.668;23.250;2023-04-10T13:10:42;48420.09;;;-141.90;63.02
5298;BME280;14738;42.668;23.250;2023-04-10T13:13:08;48461.78;;;-141.90;57.88
5298;BME280;14738;42.668;23.250;2023-04-10T13:15:36;48463.75;;;-141.90;56.53
5298;BME280;14738;42.668;23.250;2023-04-10T13:18:03;48461.78;;;-141.90;53.59
5298;BME280;14738;42.668;23.250;2023-04-10T13:20:31;48457.81;;;-141.90;54.16
5298;BME280;14738;42.668;23.250;2023-04-10T13:22:57;48412.13;;;-141.90;55.33